Time;durP1;ratioP1;P1;durP2;ratioP2;P2;SDS_P1;SDS_P2;PMS_P1;PMS_P2;Temp;Humidity;BMP_temperature;BMP_pressure;BME280_temperature;BME280_humidity;BME280_pressure;Samples;Min_cycle;Max_cycle;Signal;HPM_P1;HPM_P2
2021/06/24 00:00:55;;;;;;;1.27;1.23;;;17.70;98.00;;;;;;5072182;28;20963;-70
2021/06/24 00:03:26;;;;;;;1.73;1.33;;;17.60;98.00;;;;;;5070644;28;20449;-71
2021/06/24 00:05:54;;;;;;;1.53;1.17;;;17.60;98.00;;;;;;5071861;28;20507;-70
2021/06/24 00:08:21;;;;;;;1.20;1.20;;;17.60;98.00;;;;;;5069969;28;20510;-70
2021/06/24 00:10:50;;;;;;;1.20;1.10;;;17.50;98.00;;;;;;5072072;28;20452;-70
2021/06/24 00:13:17;;;;;;;1.77;1.20;;;17.40;98.00;;;;;;5069342;28;20529;-70
2021/06/24 00:15:46;;;;;;;1.30;1.10;;;17.40;98.00;;;;;;5071074;28;20914;-70
2021/06/24 00:18:14;;;;;;;1.93;1.40;;;17.40;98.00;;;;;;5069071;28;20544;-70
2021/06/24 00:20:44;;;;;;;1.10;1.10;;;17.40;98.00;;;;;;5070889;28;20510;-70
2021/06/24 00:23:12;;;;;;;1.10;1.00;;;17.60;98.00;;;;;;5068416;28;20526;-70
2021/06/24 00:25:40;;;;;;;1.60;1.10;;;17.70;98.00;;;;;;5070757;28;20457;-70
2021/06/24 00:28:08;;;;;;;1.30;1.20;;;17.60;98.00;;;;;;5067284;28;20456;-70
2021/06/24 00:30:36;;;;;;;1.20;1.10;;;17.60;98.00;;;;;;5070669;28;20457;-70
2021/06/24 00:33:04;;;;;;;1.40;1.23;;;17.80;98.00;;;;;;5068663;28;20514;-70
2021/06/24 00:35:34;;;;;;;1.20;1.10;;;17.80;98.00;;;;;;5070656;28;20476;-70
2021/06/24 00:38:04;;;;;;;1.40;1.30;;;17.70;98.00;;;;;;5068718;28;20465;-70
2021/06/24 00:40:33;;;;;;;1.23;1.17;;;17.70;98.00;;;;;;5070533;28;20464;-71
2021/06/24 00:43:02;;;;;;;1.20;1.10;;;17.70;98.00;;;;;;5067377;28;20461;-70
2021/06/24 00:45:29;;;;;;;1.20;1.00;;;17.70;98.00;;;;;;5070447;28;20530;-70
2021/06/24 00:47:56;;;;;;;1.20;1.10;;;17.60;98.00;;;;;;5072219;28;20514;-71
2021/06/24 00:50:24;;;;;;;1.20;1.10;;;17.70;98.00;;;;;;5074856;28;20970;-69
2021/06/24 00:52:51;;;;;;;1.57;1.40;;;17.70;98.00;;;;;;5072571;28;20487;-70
2021/06/24 00:55:39;;;;;;;1.40;1.27;;;17.60;98.00;;;;;;5074253;28;20489;-70
2021/06/24 00:58:06;;;;;;;2.07;1.60;;;17.50;98.00;;;;;;5072173;28;20536;-70
2021/06/24 01:00:34;;;;;;;1.47;1.10;;;17.40;98.00;;;;;;5074527;28;20530;-71
2021/06/24 01:03:01;;;;;;;1.30;1.20;;;17.30;98.00;;;;;;5072102;28;20515;-70
2021/06/24 01:05:28;;;;;;;1.20;1.20;;;17.20;98.00;;;;;;5074205;28;20514;-71
2021/06/24 01:07:55;;;;;;;1.30;1.20;;;17.10;98.00;;;;;;5072314;28;20541;-70
2021/06/24 01:10:23;;;;;;;1.20;1.10;;;17.10;98.00;;;;;;5074216;28;20514;-70
2021/06/24 01:12:51;;;;;;;1.20;1.10;;;17.10;98.00;;;;;;5072407;28;20942;-70
2021/06/24 01:15:18;;;;;;;1.20;1.17;;;17.10;98.00;;;;;;5074171;28;20485;-70
2021/06/24 01:17:45;;;;;;;1.20;1.10;;;17.00;98.00;;;;;;5072063;28;20453;-70
2021/06/24 01:20:14;;;;;;;1.77;1.40;;;17.00;98.00;;;;;;5073957;28;20491;-70
2021/06/24 01:22:41;;;;;;;1.10;1.00;;;17.00;98.00;;;;;;5070570;28;20452;-70
2021/06/24 01:25:10;;;;;;;1.40;1.20;;;17.00;98.00;;;;;;5073758;28;20449;-70
2021/06/24 01:27:37;;;;;;;1.50;1.17;;;17.00;98.00;;;;;;5071930;28;20828;-70
2021/06/24 01:30:06;;;;;;;2.60;1.53;;;17.10;98.00;;;;;;5073490;28;20500;-70
2021/06/24 01:32:33;;;;;;;1.20;1.10;;;17.00;98.00;;;;;;5071539;28;20453;-70
2021/06/24 01:35:00;;;;;;;1.30;1.10;;;17.00;98.00;;;;;;5073769;28;21035;-70
2021/06/24 01:37:27;;;;;;;1.30;1.30;;;17.00;98.00;;;;;;5071663;28;20872;-70
2021/06/24 01:39:54;;;;;;;1.33;1.23;;;17.20;98.00;;;;;;5073736;28;20487;-69
2021/06/24 01:42:23;;;;;;;1.30;1.20;;;17.20;98.00;;;;;;5070126;28;20485;-70
2021/06/24 01:44:50;;;;;;;1.37;1.27;;;17.30;98.00;;;;;;5073376;28;20532;-70
2021/06/24 01:47:17;;;;;;;1.20;1.10;;;17.30;98.00;;;;;;5071554;28;20445;-70
2021/06/24 01:49:44;;;;;;;1.20;1.10;;;17.40;98.00;;;;;;5073442;28;20866;-70
2021/06/24 01:52:11;;;;;;;1.43;1.30;;;17.50;98.00;;;;;;5071082;28;20514;-70
2021/06/24 01:54:38;;;;;;;1.50;1.10;;;17.50;98.00;;;;;;5071990;28;20543;-70
2021/06/24 01:57:05;;;;;;;1.50;1.20;;;17.50;98.00;;;;;;5072241;28;20513;-70
2021/06/24 01:59:34;;;;;;;1.20;1.10;;;17.40;98.00;;;;;;5072567;28;20465;-70
2021/06/24 02:02:01;;;;;;;1.20;1.00;;;17.30;98.00;;;;;;5073144;28;20465;-70
2021/06/24 02:04:29;;;;;;;1.20;1.07;;;17.20;98.00;;;;;;5071035;28;20492;-70
2021/06/24 02:06:56;;;;;;;1.60;1.30;;;17.00;98.00;;;;;;5073049;28;20536;-70
2021/06/24 02:09:23;;;;;;;1.77;1.30;;;17.00;98.00;;;;;;5069657;28;20943;-70
2021/06/24 02:11:54;;;;;;;1.20;1.13;;;16.90;98.00;;;;;;5072934;28;20507;-70
2021/06/24 02:14:21;;;;;;;1.30;1.17;;;16.80;98.00;;;;;;5070531;28;20488;-70
2021/06/24 02:16:49;;;;;;;1.30;1.20;;;16.80;98.00;;;;;;5072739;28;20492;-70
2021/06/24 02:19:17;;;;;;;1.20;1.10;;;16.70;98.00;;;;;;5070801;28;20449;-70
2021/06/24 02:21:44;;;;;;;1.10;1.00;;;16.70;98.00;;;;;;5072920;28;20878;-70
2021/06/24 02:24:11;;;;;;;1.10;1.10;;;16.70;98.00;;;;;;5070434;28;21001;-70
2021/06/24 02:26:38;;;;;;;1.43;1.20;;;16.80;98.00;;;;;;5072736;28;20802;-70
2021/06/24 02:29:05;;;;;;;1.43;1.03;;;16.70;98.00;;;;;;5070161;28;20884;-70
2021/06/24 02:31:32;;;;;;;1.70;1.47;;;16.80;98.00;;;;;;5071476;28;21156;-70
2021/06/24 02:34:01;;;;;;;1.20;1.10;;;16.90;98.00;;;;;;5070548;28;20944;-71
2021/06/24 02:36:28;;;;;;;1.67;1.10;;;16.90;98.00;;;;;;5072678;28;20495;-70
2021/06/24 02:38:55;;;;;;;1.20;1.20;;;17.00;98.00;;;;;;5070871;28;20456;-70
2021/06/24 02:41:22;;;;;;;1.27;1.20;;;17.10;98.00;;;;;;5071218;28;20518;-71
2021/06/24 02:43:49;;;;;;;1.20;1.00;;;17.10;98.00;;;;;;5068902;28;20497;-70
2021/06/24 02:46:17;;;;;;;1.20;1.20;;;17.10;98.00;;;;;;5072286;28;20460;-70
2021/06/24 02:48:44;;;;;;;1.20;1.10;;;17.20;98.00;;;;;;5070460;28;20445;-70
2021/06/24 02:51:12;;;;;;;1.20;1.00;;;17.20;98.00;;;;;;5070955;28;20506;-70
2021/06/24 02:53:39;;;;;;;1.20;1.20;;;17.10;98.00;;;;;;5070412;28;20863;-70
2021/06/24 02:56:06;;;;;;;1.20;1.00;;;17.00;98.00;;;;;;5070785;28;20535;-70
2021/06/24 02:58:33;;;;;;;1.20;1.03;;;16.90;98.00;;;;;;5070109;28;20514;-70
2021/06/24 03:01:03;;;;;;;1.20;1.20;;;17.00;98.00;;;;;;5071995;28;20492;-69
2021/06/24 03:03:30;;;;;;;1.20;1.00;;;16.90;98.00;;;;;;5069748;28;20456;-70
2021/06/24 03:05:58;;;;;;;1.20;1.20;;;16.70;98.00;;;;;;5071914;28;20524;-70
2021/06/24 03:08:27;;;;;;;2.23;1.40;;;16.70;98.00;;;;;;5069584;28;20506;-70
2021/06/24 03:10:55;;;;;;;1.30;1.30;;;16.70;98.00;;;;;;5071432;28;20522;-70
2021/06/24 03:13:23;;;;;;;1.20;1.10;;;16.50;98.00;;;;;;5068540;28;20461;-70
2021/06/24 03:15:51;;;;;;;1.40;1.20;;;16.60;98.00;;;;;;5071509;28;20545;-70
2021/06/24 03:18:18;;;;;;;1.90;1.23;;;16.50;98.00;;;;;;5068697;28;20463;-70
2021/06/24 03:23:31;;;;;;;1.30;1.13;;;16.60;98.00;;;;;;5069806;28;20468;-69
2021/06/24 03:25:59;;;;;;;1.30;1.27;;;16.60;98.00;;;;;;5071581;28;20889;-70
2021/06/24 03:28:26;;;;;;;1.20;1.10;;;16.70;98.00;;;;;;5068248;28;20526;-70
2021/06/24 03:30:53;;;;;;;1.20;1.00;;;16.80;98.00;;;;;;5071001;28;20457;-69
2021/06/24 03:33:20;;;;;;;1.30;1.00;;;16.70;98.00;;;;;;5067754;28;20457;-70
2021/06/24 03:35:50;;;;;;;1.20;1.07;;;16.70;98.00;;;;;;5071119;28;20520;-69
2021/06/24 03:38:17;;;;;;;1.77;1.20;;;16.80;98.00;;;;;;5069301;28;20453;-70
2021/06/24 03:40:46;;;;;;;1.20;1.00;;;16.80;98.00;;;;;;5071159;28;20449;-70
2021/06/24 03:43:14;;;;;;;1.20;1.10;;;16.70;98.00;;;;;;5067819;28;20476;-70
2021/06/24 03:45:40;;;;;;;1.20;1.10;;;16.70;98.00;;;;;;5071261;28;20500;-70
2021/06/24 03:48:08;;;;;;;1.20;1.00;;;16.80;98.00;;;;;;5069218;28;20972;-70
2021/06/24 03:50:39;;;;;;;1.30;1.10;;;16.70;98.00;;;;;;5071252;28;20510;-70
2021/06/24 03:53:06;;;;;;;1.20;1.07;;;16.70;98.00;;;;;;5069193;28;20449;-70
2021/06/24 03:55:37;;;;;;;1.20;1.10;;;16.80;98.00;;;;;;5070834;28;20480;-70
2021/06/24 03:58:06;;;;;;;1.20;1.10;;;16.80;98.00;;;;;;5069081;28;20453;-70
2021/06/24 04:00:35;;;;;;;1.53;1.20;;;16.90;98.00;;;;;;5071001;28;20931;-70
2021/06/24 04:03:02;;;;;;;1.20;1.20;;;17.00;98.00;;;;;;5068891;28;20517;-70
2021/06/24 04:05:31;;;;;;;1.20;1.10;;;16.90;98.00;;;;;;5070753;28;20489;-71
2021/06/24 04:07:59;;;;;;;1.20;1.00;;;17.00;98.00;;;;;;5067574;28;20459;-70
2021/06/24 04:10:26;;;;;;;1.20;0.97;;;17.00;98.00;;;;;;5070756;28;20461;-70
2021/06/24 04:12:54;;;;;;;1.30;1.20;;;17.10;98.00;;;;;;5067405;28;20518;-70
2021/06/24 04:15:23;;;;;;;1.20;1.00;;;17.20;98.00;;;;;;5070473;28;20487;-70
2021/06/24 04:17:51;;;;;;;1.30;1.20;;;17.40;98.00;;;;;;5068701;28;20598;-70
2021/06/24 04:20:19;;;;;;;1.20;1.00;;;17.40;98.00;;;;;;5070351;28;20458;-71
2021/06/24 04:22:47;;;;;;;1.20;1.10;;;17.30;98.00;;;;;;5068517;28;20461;-71
2021/06/24 04:25:16;;;;;;;1.20;1.13;;;17.40;98.00;;;;;;5070536;28;20461;-70
2021/06/24 04:27:43;;;;;;;1.60;1.30;;;17.40;98.00;;;;;;5068690;28;20994;-70
2021/06/24 04:30:11;;;;;;;1.97;1.20;;;17.50;98.00;;;;;;5070460;28;20550;-70
2021/06/24 04:32:40;;;;;;;1.50;1.33;;;17.50;98.00;;;;;;5068556;28;20905;-70
2021/06/24 04:35:08;;;;;;;1.20;1.10;;;17.40;98.00;;;;;;5070553;28;20522;-70
2021/06/24 04:37:36;;;;;;;1.40;1.20;;;17.70;98.00;;;;;;5068172;28;20445;-69
2021/06/24 04:40:03;;;;;;;1.87;1.20;;;17.70;98.00;;;;;;5069224;28;20506;-70
2021/06/24 04:42:31;;;;;;;1.87;1.20;;;17.60;98.00;;;;;;5068367;28;20499;-70
2021/06/24 04:44:58;;;;;;;1.20;1.10;;;17.60;98.00;;;;;;5070601;28;20883;-70
2021/06/24 04:47:25;;;;;;;2.07;1.30;;;17.70;98.00;;;;;;5068858;28;20460;-71
2021/06/24 04:49:54;;;;;;;1.20;1.20;;;17.70;98.00;;;;;;5070481;28;20464;-70
2021/06/24 04:52:21;;;;;;;1.27;1.07;;;17.70;98.00;;;;;;5070378;28;20488;-70
2021/06/24 04:54:48;;;;;;;1.30;1.23;;;17.60;98.00;;;;;;5068679;28;20461;-70
2021/06/24 04:57:15;;;;;;;1.50;1.10;;;17.70;98.00;;;;;;5070205;28;20488;-70
2021/06/24 04:59:42;;;;;;;1.20;1.20;;;17.70;98.00;;;;;;5068460;28;20456;-70
2021/06/24 05:02:09;;;;;;;1.37;1.30;;;17.60;98.00;;;;;;5070440;28;20514;-70
2021/06/24 05:04:36;;;;;;;1.30;1.20;;;17.80;98.00;;;;;;5068633;28;20730;-70
2021/06/24 05:07:08;;;;;;;1.20;1.20;;;17.80;98.00;;;;;;5070371;28;20947;-70
2021/06/24 05:09:40;;;;;;;1.20;1.10;;;17.90;98.00;;;;;;5068325;28;20527;-70
2021/06/24 05:12:08;;;;;;;1.20;1.17;;;17.90;98.00;;;;;;5070194;28;20460;-70
2021/06/24 05:14:35;;;;;;;1.20;1.13;;;18.00;98.00;;;;;;5068106;28;20548;-71
2021/06/24 05:17:02;;;;;;;1.30;1.13;;;18.00;98.00;;;;;;5070186;28;20575;-70
2021/06/24 05:19:29;;;;;;;1.20;1.10;;;18.10;98.00;;;;;;5068074;28;20507;-70
2021/06/24 05:21:56;;;;;;;1.20;1.20;;;18.10;98.00;;;;;;5070108;28;20834;-70
2021/06/24 05:24:25;;;;;;;1.97;1.30;;;18.20;98.00;;;;;;5068000;28;20485;-70
2021/06/24 05:26:52;;;;;;;1.33;1.33;;;18.10;98.00;;;;;;5070172;28;20445;-70
2021/06/24 05:29:19;;;;;;;1.30;1.20;;;18.00;98.00;;;;;;5067581;28;20468;-70
2021/06/24 05:31:46;;;;;;;1.77;1.40;;;17.90;98.00;;;;;;5068891;28;20979;-70
2021/06/24 05:34:13;;;;;;;1.20;1.10;;;17.90;98.00;;;;;;5071833;28;20496;-70
2021/06/24 05:36:40;;;;;;;1.53;1.27;;;17.80;98.00;;;;;;5073428;28;20541;-70
2021/06/24 05:39:07;;;;;;;1.40;1.37;;;18.00;98.00;;;;;;5071369;28;20457;-70
2021/06/24 05:41:35;;;;;;;1.70;1.30;;;18.00;98.00;;;;;;5073384;28;20456;-70
2021/06/24 05:44:03;;;;;;;1.20;1.17;;;18.00;98.00;;;;;;5071523;28;20500;-70
2021/06/24 05:46:30;;;;;;;1.20;1.10;;;17.90;98.00;;;;;;5072061;28;20457;-70
2021/06/24 05:48:57;;;;;;;1.30;1.10;;;18.00;98.00;;;;;;5071294;28;20538;-70
2021/06/24 05:51:24;;;;;;;1.83;1.20;;;17.90;98.00;;;;;;5073355;28;20461;-71
2021/06/24 05:53:51;;;;;;;1.10;1.00;;;18.10;98.00;;;;;;5071148;28;20480;-71
2021/06/24 05:56:19;;;;;;;1.10;1.10;;;18.10;98.00;;;;;;5073128;28;20520;-71
2021/06/24 05:58:47;;;;;;;1.50;1.40;;;18.20;98.00;;;;;;5070958;28;20523;-70
2021/06/24 06:01:16;;;;;;;1.30;1.30;;;18.30;98.00;;;;;;5072944;28;20464;-70
2021/06/24 06:03:43;;;;;;;1.67;1.40;;;18.40;98.00;;;;;;5070993;28;20540;-70
2021/06/24 06:06:10;;;;;;;1.50;1.23;;;18.40;98.00;;;;;;5072887;28;21008;-70
2021/06/24 06:08:37;;;;;;;1.50;1.30;;;18.60;98.00;;;;;;5070662;28;20465;-70
2021/06/24 06:11:06;;;;;;;1.30;1.30;;;18.70;98.00;;;;;;5071649;28;20457;-69
2021/06/24 06:13:34;;;;;;;1.47;1.30;;;18.80;98.00;;;;;;5070691;28;20460;-69
2021/06/24 06:16:10;;;;;;;1.60;1.23;;;18.90;98.00;;;;;;5072616;28;20492;-69
2021/06/24 06:18:37;;;;;;;1.30;1.20;;;19.10;98.00;;;;;;5070627;28;20465;-70
2021/06/24 06:21:04;;;;;;;1.20;1.10;;;19.20;98.00;;;;;;5072518;28;20513;-69
2021/06/24 06:23:31;;;;;;;1.20;1.20;;;19.20;98.00;;;;;;5069195;28;20813;-70
2021/06/24 06:25:58;;;;;;;1.20;1.07;;;19.40;98.00;;;;;;5072746;28;20522;-70
2021/06/24 06:28:27;;;;;;;1.30;1.20;;;19.40;98.00;;;;;;5070290;28;20549;-70
2021/06/24 06:30:57;;;;;;;1.20;1.10;;;19.50;98.00;;;;;;5071279;28;20543;-69
2021/06/24 06:33:25;;;;;;;1.40;1.40;;;19.60;98.00;;;;;;5070314;28;20453;-69
2021/06/24 06:35:52;;;;;;;1.43;1.20;;;19.80;98.00;;;;;;5072307;28;21089;-69
2021/06/24 06:38:20;;;;;;;1.20;1.10;;;19.90;98.00;;;;;;5070433;28;20485;-70
2021/06/24 06:40:48;;;;;;;1.30;1.20;;;19.90;98.00;;;;;;5072562;28;20461;-70
2021/06/24 06:43:18;;;;;;;1.93;1.47;;;20.00;98.00;;;;;;5070296;28;20453;-70
2021/06/24 06:45:45;;;;;;;1.27;1.23;;;20.00;98.00;;;;;;5070994;28;20459;-70
2021/06/24 06:48:13;;;;;;;1.60;1.40;;;19.80;98.00;;;;;;5069832;28;20504;-70
2021/06/24 06:50:42;;;;;;;1.40;1.33;;;19.70;98.00;;;;;;5072090;28;20875;-71
2021/06/24 06:53:09;;;;;;;1.20;1.17;;;19.70;98.00;;;;;;5070052;28;20484;-70
2021/06/24 06:55:38;;;;;;;1.20;1.13;;;19.50;98.00;;;;;;5071920;28;20495;-70
2021/06/24 06:58:06;;;;;;;1.50;1.40;;;19.50;98.00;;;;;;5069747;28;20843;-70
2021/06/24 07:00:34;;;;;;;1.20;1.03;;;19.50;98.00;;;;;;5071825;28;20449;-70
2021/06/24 07:03:01;;;;;;;2.43;1.40;;;19.40;98.00;;;;;;5069742;28;20463;-71
2021/06/24 07:05:28;;;;;;;1.30;1.20;;;19.40;98.00;;;;;;5071801;28;20506;-69
2021/06/24 07:07:57;;;;;;;1.40;1.23;;;19.60;98.00;;;;;;5069559;28;20480;-70
2021/06/24 07:10:25;;;;;;;1.23;1.10;;;19.80;98.00;;;;;;5071502;28;20819;-70
2021/06/24 07:12:53;;;;;;;1.20;1.10;;;19.90;98.00;;;;;;5068294;28;20453;-69
2021/06/24 07:15:20;;;;;;;1.70;1.33;;;20.10;98.00;;;;;;5070681;28;21078;-72
2021/06/24 07:17:47;;;;;;;1.30;1.27;;;20.30;98.00;;;;;;5068978;28;20520;-71
2021/06/24 07:20:16;;;;;;;1.20;1.20;;;20.50;98.00;;;;;;5070991;28;20449;-71
2021/06/24 07:22:48;;;;;;;2.27;1.70;;;20.70;98.00;;;;;;5068829;28;20449;-70
2021/06/24 07:25:18;;;;;;;1.20;1.20;;;20.90;98.00;;;;;;5070729;28;20460;-70
2021/06/24 07:27:46;;;;;;;2.40;1.60;;;21.20;98.00;;;;;;5068654;28;20464;-70
2021/06/24 07:30:14;;;;;;;1.30;1.30;;;21.40;98.00;;;;;;5070847;28;20506;-70
2021/06/24 07:32:44;;;;;;;1.40;1.30;;;21.80;98.00;;;;;;5069439;28;20496;-70
2021/06/24 07:35:13;;;;;;;1.40;1.33;;;21.90;98.00;;;;;;5070467;28;20453;-71
2021/06/24 07:37:42;;;;;;;1.40;1.37;;;21.70;98.00;;;;;;5069367;28;20520;-72
2021/06/24 07:40:11;;;;;;;1.40;1.40;;;21.90;98.00;;;;;;5071015;28;20511;-70
2021/06/24 07:42:39;;;;;;;2.00;1.60;;;21.90;98.00;;;;;;5070937;28;20456;-72
2021/06/24 07:45:07;;;;;;;1.27;1.20;;;21.80;98.00;;;;;;5069549;28;20461;-71
2021/06/24 07:47:34;;;;;;;1.20;1.00;;;21.70;98.00;;;;;;5070565;28;20464;-70
2021/06/24 07:50:01;;;;;;;1.40;1.33;;;21.80;98.00;;;;;;5067117;28;20460;-70
2021/06/24 07:52:28;;;;;;;1.50;1.40;;;21.80;98.00;;;;;;5070456;28;20456;-70
2021/06/24 07:54:55;;;;;;;1.40;1.33;;;21.60;98.00;;;;;;5067753;28;20939;-70
2021/06/24 07:57:22;;;;;;;1.50;1.30;;;21.50;98.00;;;;;;5070381;28;20998;-71
2021/06/24 07:59:51;;;;;;;1.20;1.13;;;21.30;98.00;;;;;;5068206;28;20465;-71
2021/06/24 08:02:18;;;;;;;1.30;1.20;;;21.20;98.00;;;;;;5070306;28;20528;-71
2021/06/24 08:04:45;;;;;;;1.57;1.30;;;21.10;98.00;;;;;;5068610;28;20469;-70
2021/06/24 08:07:12;;;;;;;1.70;1.40;;;21.10;98.00;;;;;;5070833;28;20453;-70
2021/06/24 08:09:39;;;;;;;2.07;1.40;;;21.30;98.00;;;;;;5068434;28;20489;-70
2021/06/24 08:12:07;;;;;;;2.27;1.50;;;21.40;98.00;;;;;;5070661;28;20525;-71
2021/06/24 08:14:35;;;;;;;1.37;1.33;;;21.20;98.00;;;;;;5067718;28;20452;-70
2021/06/24 08:17:04;;;;;;;1.77;1.67;;;21.20;98.00;;;;;;5069572;28;20532;-72
2021/06/24 08:19:31;;;;;;;1.30;1.30;;;21.30;98.00;;;;;;5067818;28;20958;-71
2021/06/24 08:21:59;;;;;;;1.90;1.47;;;21.50;98.00;;;;;;5070111;28;20494;-70
2021/06/24 08:24:27;;;;;;;1.57;1.53;;;21.40;98.00;;;;;;5067934;28;20468;-71
2021/06/24 08:26:54;;;;;;;1.40;1.30;;;21.50;98.00;;;;;;5071491;28;20448;-71
2021/06/24 08:29:22;;;;;;;1.60;1.50;;;21.70;98.00;;;;;;5068228;28;20476;-70
2021/06/24 08:31:49;;;;;;;1.30;1.30;;;21.70;98.00;;;;;;5071422;28;21010;-72
2021/06/24 08:34:17;;;;;;;1.57;1.40;;;21.70;98.00;;;;;;5068028;28;20517;-70
2021/06/24 08:36:45;;;;;;;1.80;1.50;;;21.60;98.00;;;;;;5071243;28;20520;-70
2021/06/24 08:39:12;;;;;;;1.30;1.27;;;21.50;98.00;;;;;;5068632;28;20510;-70
2021/06/24 08:41:39;;;;;;;1.43;1.13;;;21.40;98.00;;;;;;5071254;28;20934;-70
2021/06/24 08:44:07;;;;;;;1.53;1.23;;;21.40;98.00;;;;;;5068485;28;20890;-71
2021/06/24 08:46:34;;;;;;;1.47;1.40;;;21.40;98.00;;;;;;5070799;28;20510;-70
2021/06/24 08:49:03;;;;;;;1.73;1.23;;;21.30;98.00;;;;;;5067715;28;20453;-70
2021/06/24 08:51:32;;;;;;;1.20;1.20;;;21.30;98.00;;;;;;5071153;28;20480;-70
2021/06/24 08:54:00;;;;;;;1.77;1.30;;;21.30;98.00;;;;;;5056921;28;20462;-72
2021/06/24 08:56:27;;;;;;;2.10;1.50;;;21.40;98.00;;;;;;5050713;28;20983;-71
2021/06/24 08:59:12;;;;;;;1.50;1.50;;;21.50;98.00;;;;;;5046689;28;20456;-70
2021/06/24 09:01:51;;;;;;;1.30;1.30;;;21.50;98.00;;;;;;5050946;28;20507;-71
2021/06/24 09:04:20;;;;;;;1.73;1.40;;;21.50;98.00;;;;;;5045979;28;20535;-71
2021/06/24 09:06:50;;;;;;;1.70;1.53;;;21.80;98.00;;;;;;5051156;28;20491;-71
2021/06/24 09:09:28;;;;;;;1.40;1.30;;;22.00;98.00;;;;;;5051389;28;20515;-71
2021/06/24 09:12:04;;;;;;;1.40;1.30;;;22.00;98.00;;;;;;5054363;28;20484;-71
2021/06/24 09:14:41;;;;;;;1.80;1.37;;;22.30;98.00;;;;;;5073454;28;20512;-71
2021/06/24 09:17:09;;;;;;;1.30;1.30;;;22.40;98.00;;;;;;5094583;28;20539;-72
2021/06/24 09:19:40;;;;;;;2.20;1.50;;;22.40;98.00;;;;;;5091654;28;20910;-71
2021/06/24 09:22:11;;;;;;;1.70;1.40;;;22.50;98.00;;;;;;5087532;28;20943;-71
2021/06/24 09:24:41;;;;;;;1.53;1.43;;;22.70;98.00;;;;;;5070664;28;20457;-71
2021/06/24 09:27:25;;;;;;;1.50;1.30;;;22.70;98.00;;;;;;5073701;28;20514;-71
2021/06/24 09:30:01;;;;;;;1.60;1.60;;;22.60;98.00;;;;;;5067452;28;20526;-69
2021/06/24 09:32:34;;;;;;;1.40;1.40;;;22.70;98.00;;;;;;5073118;28;20456;-68
2021/06/24 09:35:03;;;;;;;1.40;1.30;;;22.70;98.00;;;;;;5071126;28;20453;-70
2021/06/24 09:38:06;;;;;;;1.53;1.47;;;22.60;98.00;;;;;;5073538;28;20562;-70
2021/06/24 09:40:43;;;;;;;1.73;1.70;;;22.50;98.00;;;;;;5073407;28;20506;-68
2021/06/24 09:43:16;;;;;;;2.07;1.87;;;22.40;98.00;;;;;;5068988;28;21005;-70
2021/06/24 09:46:03;;;;;;;1.50;1.40;;;22.50;98.00;;;;;;5073601;28;20501;-69
2021/06/24 09:48:35;;;;;;;1.80;1.63;;;22.30;98.00;;;;;;5070001;28;20456;-71
2021/06/24 09:51:14;;;;;;;1.30;1.20;;;22.30;98.00;;;;;;5073394;28;20452;-70
2021/06/24 09:53:54;;;;;;;2.43;1.57;;;22.40;98.00;;;;;;5070426;28;20990;-71
2021/06/24 09:56:23;;;;;;;1.63;1.60;;;22.60;98.00;;;;;;5073467;28;20464;-71
2021/06/24 09:58:51;;;;;;;1.30;1.10;;;22.70;98.00;;;;;;5070705;28;20572;-71
2021/06/24 10:01:34;;;;;;;1.90;1.77;;;22.90;98.00;;;;;;5072383;28;20476;-71
2021/06/24 10:04:03;;;;;;;1.40;1.20;;;23.10;98.00;;;;;;5070329;28;20510;-72
2021/06/24 10:06:30;;;;;;;1.63;1.40;;;23.10;98.00;;;;;;5072930;28;20499;-72
2021/06/24 10:08:59;;;;;;;1.40;1.20;;;23.10;98.00;;;;;;5070655;28;20453;-72
2021/06/24 10:11:27;;;;;;;1.60;1.40;;;22.90;98.00;;;;;;5071662;28;20593;-71
2021/06/24 10:13:54;;;;;;;1.80;1.50;;;22.90;98.00;;;;;;5070436;28;20457;-72
2021/06/24 10:16:26;;;;;;;1.50;1.40;;;23.00;98.00;;;;;;5073343;28;20518;-71
2021/06/24 10:18:54;;;;;;;1.70;1.40;;;23.00;98.00;;;;;;5069848;28;20507;-71
2021/06/24 10:21:24;;;;;;;1.80;1.50;;;23.10;98.00;;;;;;5073018;28;20457;-71
2021/06/24 10:23:56;;;;;;;2.13;1.50;;;23.10;98.00;;;;;;5070274;28;20456;-71
2021/06/24 10:26:26;;;;;;;2.10;1.67;;;23.20;98.00;;;;;;5073005;28;20457;-69
2021/06/24 10:29:21;;;;;;;1.50;1.50;;;23.30;98.00;;;;;;5070463;28;20473;-71
2021/06/24 10:31:50;;;;;;;1.40;1.40;;;23.30;98.00;;;;;;5037021;28;20497;-72
2021/06/24 10:34:18;;;;;;;5.37;1.80;;;23.40;98.00;;;;;;5070006;28;20457;-71
2021/06/24 10:37:12;;;;;;;1.60;1.50;;;23.40;98.00;;;;;;5073033;28;20954;-71
2021/06/24 10:39:41;;;;;;;1.40;1.30;;;23.40;98.00;;;;;;5070518;28;20534;-71
2021/06/24 10:42:15;;;;;;;1.57;1.53;;;23.30;98.00;;;;;;5072721;28;20457;-73
2021/06/24 10:44:55;;;;;;;1.50;1.30;;;23.40;98.00;;;;;;5069925;28;20481;-70
2021/06/24 10:47:38;;;;;;;1.57;1.57;;;23.40;98.00;;;;;;5072710;28;20535;-73
2021/06/24 10:50:40;;;;;;;2.17;1.50;;;23.40;98.00;;;;;;5069973;28;20539;-72
2021/06/24 10:53:48;;;;;;;1.70;1.70;;;23.50;98.00;;;;;;5069718;28;20582;-72
2021/06/24 10:56:33;;;;;;;1.40;1.30;;;23.70;98.00;;;;;;5072359;28;20463;-72
2021/06/24 10:59:22;;;;;;;1.67;1.40;;;24.00;98.00;;;;;;5069509;28;20488;-71
2021/06/24 11:01:49;;;;;;;1.70;1.30;;;24.20;97.90;;;;;;5071991;28;20457;-72
2021/06/24 11:04:31;;;;;;;1.40;1.30;;;24.70;98.00;;;;;;5069306;28;20479;-72
2021/06/24 11:07:00;;;;;;;1.33;1.20;;;25.10;97.40;;;;;;5070931;28;20487;-71
2021/06/24 11:09:27;;;;;;;1.53;1.40;;;25.40;95.70;;;;;;5069028;28;20453;-71
2021/06/24 11:11:55;;;;;;;1.63;1.57;;;25.70;92.70;;;;;;5071780;28;20514;-71
2021/06/24 11:15:02;;;;;;;1.30;1.23;;;25.90;95.90;;;;;;5068929;28;20523;-71
2021/06/24 11:17:46;;;;;;;2.17;1.53;;;26.00;93.10;;;;;;5072167;28;20564;-72
2021/06/24 11:20:19;;;;;;;1.63;1.40;;;25.70;91.40;;;;;;5068706;28;20557;-72
2021/06/24 11:22:47;;;;;;;1.50;1.30;;;25.90;92.60;;;;;;5071747;28;20995;-72
2021/06/24 11:25:16;;;;;;;1.40;1.40;;;26.20;91.80;;;;;;5069233;28;20551;-70
2021/06/24 11:27:43;;;;;;;1.30;1.30;;;26.30;93.00;;;;;;5071833;28;20506;-70
2021/06/24 11:30:14;;;;;;;1.40;1.40;;;26.60;92.20;;;;;;5068289;28;21104;-70
2021/06/24 11:32:49;;;;;;;1.53;1.43;;;27.00;90.10;;;;;;5070395;28;20456;-72
2021/06/24 11:35:30;;;;;;;2.53;1.70;;;27.10;89.10;;;;;;5068890;28;20825;-72
2021/06/24 11:38:03;;;;;;;1.50;1.30;;;27.20;89.80;;;;;;5071686;28;20491;-71
2021/06/24 11:40:32;;;;;;;1.70;1.30;;;27.10;88.20;;;;;;5068932;28;20504;-72
2021/06/24 11:43:07;;;;;;;1.93;1.70;;;26.70;87.10;;;;;;5071548;28;20476;-71
2021/06/24 11:45:36;;;;;;;1.30;1.30;;;26.30;87.90;;;;;;5070851;28;20460;-72
2021/06/24 11:48:04;;;;;;;1.37;1.30;;;25.80;90.30;;;;;;5069881;28;20468;-73
2021/06/24 12:04:20;;;;;;;1.80;1.40;;;23.60;98.00;;;;;;5045230;28;20548;-71
2021/06/24 12:06:53;;;;;;;1.50;1.33;;;23.60;98.00;;;;;;5071393;28;20453;-70
2021/06/24 12:09:22;;;;;;;2.13;1.33;;;24.20;98.00;;;;;;5068464;28;20485;-71
2021/06/24 12:11:51;;;;;;;1.20;1.13;;;24.90;98.00;;;;;;5070979;28;20476;-72
2021/06/24 12:14:20;;;;;;;1.50;1.30;;;25.40;98.00;;;;;;5068196;28;20461;-72
2021/06/24 12:17:15;;;;;;;1.47;1.40;;;25.90;98.00;;;;;;5071104;28;20460;-71
2021/06/24 12:19:50;;;;;;;1.30;1.30;;;26.40;98.00;;;;;;5068452;28;20452;-69
2021/06/24 12:22:22;;;;;;;1.50;1.37;;;26.00;93.20;;;;;;5070833;28;20932;-71
2021/06/24 12:24:50;;;;;;;1.93;1.40;;;25.80;93.50;;;;;;5067905;28;20459;-71
2021/06/24 12:27:26;;;;;;;1.50;1.30;;;25.60;93.10;;;;;;5069652;28;20820;-72
2021/06/24 12:29:56;;;;;;;1.40;1.30;;;25.50;92.50;;;;;;5068156;28;20469;-70
2021/06/24 12:32:25;;;;;;;1.57;1.47;;;25.40;93.50;;;;;;5070368;28;20453;-70
2021/06/24 12:34:55;;;;;;;1.27;1.23;;;25.10;93.20;;;;;;5068014;28;20994;-71
2021/06/24 12:37:34;;;;;;;1.50;1.23;;;24.80;96.10;;;;;;5069918;28;20943;-70
2021/06/24 12:40:03;;;;;;;1.80;1.60;;;24.50;98.00;;;;;;5068406;28;20514;-72
2021/06/24 12:42:30;;;;;;;2.00;1.43;;;24.40;95.20;;;;;;5074126;28;20493;-71
2021/06/24 12:45:01;;;;;;;1.40;1.40;;;24.00;98.00;;;;;;5073948;28;20919;-72
2021/06/24 12:47:42;;;;;;;1.80;1.47;;;23.80;98.00;;;;;;5074608;28;20475;-71
2021/06/24 12:50:15;;;;;;;1.90;1.80;;;23.70;98.00;;;;;;5072494;28;20993;-71
2021/06/24 12:52:47;;;;;;;1.20;1.20;;;23.50;98.00;;;;;;5074475;28;20477;-71
2021/06/24 12:55:38;;;;;;;1.40;1.30;;;23.40;98.00;;;;;;5071903;28;20492;-71
2021/06/24 12:58:07;;;;;;;1.20;1.10;;;23.40;98.00;;;;;;5074391;28;20481;-71
2021/06/24 13:00:41;;;;;;;1.53;1.47;;;23.50;98.00;;;;;;5072392;28;20459;-72
2021/06/24 13:03:14;;;;;;;1.30;1.30;;;23.60;97.70;;;;;;5072851;28;20468;-72
2021/06/24 13:05:42;;;;;;;1.37;1.37;;;23.50;97.40;;;;;;5074233;28;20460;-72
2021/06/24 13:08:10;;;;;;;1.30;1.20;;;23.70;98.00;;;;;;5074681;28;20456;-71
2021/06/24 13:10:47;;;;;;;1.50;1.30;;;24.10;97.70;;;;;;5072012;28;20545;-71
2021/06/24 13:13:29;;;;;;;1.50;1.30;;;24.50;95.80;;;;;;5072521;28;20456;-72
2021/06/24 13:15:56;;;;;;;2.03;1.43;;;24.90;95.30;;;;;;5074041;28;20498;-72
2021/06/24 13:18:25;;;;;;;1.50;1.50;;;25.10;93.50;;;;;;5071794;28;20524;-71